Seitenverwaltung

Live am Platz

Zeiten genähert. Alle Angaben unverbindlich und ohne Gewähr.

Die Bilder unserer Webcams werden alle 5 Minuten aktualisiert.

Beginn bürgerliche Dämmerung, Sonnenaufgang:

04:02 UTC / 06:02 Lokal
04:33 UTC / 06:33 Lokal

Sonnenuntergang, Ende bürgerliche Dämmerung:

18:13 UTC / 20:13 Lokal
18:44 UTC / 20:44 Lokal

METAR (14.04.2024 22:20 UTC):

EDNY 142220Z AUTO 00000KT CAVOK 12/10 Q1017
VFR

TAF (14.04.2024 17:00 UTC):

TAF EDNY 141700Z 1418/1518 VRB03KT CAVOK FM150500 23005KT 9999 BKN040 TEMPO 1505/1515 SHRA SCT025 BKN035CB BECMG 1508/1510 25015G30KT PROB30 TEMPO 1510/1514 27020G35KT TSRA

Für den Verkehrslandeplatz Konstanz werden keine offiziellen Wetterinformationen ausgegeben. Daher werden zur Orientierung Daten des nahegelegenen Flughafens Friedrichshafen dargestellt.

Das Landeentgelt kann bei uns mit aerops bezahlt werden. Die App für's Handy ist kostenfrei erhältlich.